createdAt,value
2017-08-01T19:35:12.785Z,28.34
2017-08-01T19:36:21.693Z,28.44
2017-08-01T19:37:30.592Z,28.54
2017-08-01T19:38:39.824Z,28.6
2017-08-01T19:39:48.729Z,28.64
2017-08-01T19:40:57.639Z,28.74
2017-08-01T19:42:06.878Z,28.71
2017-08-01T19:43:15.805Z,28.86
2017-08-01T19:44:24.715Z,28.93
2017-08-01T19:45:33.622Z,28.9
2017-08-01T19:46:42.526Z,28.95
2017-08-01T19:47:51.430Z,28.95
2017-08-01T19:49:00.345Z,29.06
2017-08-01T19:50:09.581Z,29.01
2017-08-01T19:51:18.496Z,28.98
2017-08-01T19:52:27.395Z,29.09
2017-08-01T19:53:36.303Z,29.05
2017-08-01T19:54:45.205Z,29.09
2017-08-01T19:55:54.115Z,29.05
2017-08-01T19:57:03.035Z,29.08
2017-08-01T19:58:11.946Z,28.98
2017-08-01T19:59:20.847Z,29.01
2017-08-01T20:00:29.761Z,29.06
2017-08-01T20:01:38.665Z,29.04
2017-08-01T20:02:47.571Z,29.12
2017-08-01T20:03:56.483Z,29.04
2017-08-01T20:05:05.396Z,29.17
2017-08-01T20:06:14.314Z,29.08
2017-08-01T20:07:23.229Z,29.09
2017-08-01T20:08:32.130Z,29.15
2017-08-01T20:09:41.034Z,29.09
2017-08-01T20:10:50.274Z,29.08
2017-08-01T20:11:59.180Z,29.14
2017-08-01T20:13:08.084Z,29.14
2017-08-01T20:14:16.989Z,29.15
2017-08-01T20:15:25.898Z,29.12
2017-08-01T20:16:34.797Z,29.02
2017-08-01T20:17:44.052Z,29.14
2017-08-01T20:18:52.964Z,29.05
2017-08-01T20:20:01.870Z,29.11
2017-08-01T20:21:11.417Z,29.15
2017-08-01T20:22:20.330Z,29.12
2017-08-01T20:23:29.229Z,29.02
2017-08-01T20:24:38.457Z,29.04
2017-08-01T20:25:47.366Z,29.14
2017-08-01T20:26:56.279Z,28.95
2017-08-01T20:28:05.194Z,29.11
2017-08-01T20:29:14.094Z,29.12
2017-08-01T20:30:22.994Z,28.98
2017-08-01T20:31:31.906Z,28.98
2017-08-01T20:32:40.816Z,28.95
2017-08-01T20:33:50.043Z,29.02
2017-08-01T20:34:59.269Z,28.98
2017-08-01T20:36:08.187Z,29.04
2017-08-01T20:37:17.095Z,29.06
2017-08-01T20:38:26.006Z,28.95
2017-08-01T20:39:34.915Z,29.02
2017-08-01T20:40:43.828Z,29.02
2017-08-01T20:41:52.735Z,29.02
2017-08-01T20:43:01.643Z,28.98
2017-08-01T20:44:10.548Z,28.98
2017-08-01T20:45:19.463Z,28.98
2017-08-01T20:46:28.704Z,28.97
2017-08-01T20:47:37.608Z,28.95
2017-08-01T20:48:46.541Z,28.97
2017-08-01T20:49:55.767Z,29.02
2017-08-01T20:51:04.680Z,28.97
2017-08-01T20:52:13.576Z,29.05
2017-08-01T20:53:22.488Z,29.02
2017-08-01T20:54:31.390Z,28.97
2017-08-01T20:55:40.299Z,28.95
2017-08-01T20:56:49.211Z,28.93
2017-08-01T20:57:58.117Z,28.9
2017-08-01T20:59:07.031Z,28.95
2017-08-01T21:00:16.274Z,28.98
2017-08-01T21:01:25.180Z,28.97
2017-08-01T21:02:34.094Z,28.9
2017-08-01T21:03:43.000Z,28.92
2017-08-01T21:04:51.916Z,28.9
2017-08-01T21:06:00.821Z,28.88
2017-08-01T21:07:09.725Z,28.95
2017-08-01T21:08:18.662Z,28.85
2017-08-01T21:09:27.626Z,28.85
2017-08-01T21:10:36.603Z,28.88
2017-08-01T21:11:45.564Z,28.9
2017-08-01T21:12:54.519Z,28.93
2017-08-01T21:14:03.447Z,28.88
2017-08-01T21:15:12.349Z,28.89
2017-08-01T21:16:21.579Z,28.83
2017-08-01T21:17:30.487Z,28.88
2017-08-01T21:18:39.392Z,28.81
2017-08-01T21:19:48.297Z,28.93
2017-08-01T21:20:57.219Z,28.88
2017-08-01T21:22:06.131Z,28.86
2017-08-01T21:23:15.043Z,28.86
2017-08-01T21:24:23.951Z,28.9
2017-08-01T21:25:33.180Z,28.93
2017-08-01T21:26:42.407Z,28.85
2017-08-01T21:27:51.313Z,28.77
2017-08-01T21:29:00.219Z,28.9
2017-08-01T21:30:09.131Z,28.85
2017-08-01T21:31:18.039Z,28.83
2017-08-01T21:32:26.947Z,28.82
2017-08-01T21:33:36.513Z,28.89
2017-08-01T21:34:45.421Z,28.93
2017-08-01T21:35:54.328Z,28.77
2017-08-01T21:37:03.233Z,28.86
2017-08-01T21:38:12.459Z,28.81
2017-08-01T21:39:21.389Z,28.82
2017-08-01T21:40:30.305Z,28.85
2017-08-01T21:41:39.215Z,28.93
2017-08-01T21:42:48.114Z,28.81
2017-08-01T21:43:57.019Z,28.86
2017-08-01T21:45:05.924Z,28.83
2017-08-01T21:46:14.851Z,28.76
2017-08-01T21:47:23.758Z,28.73
2017-08-01T21:48:32.666Z,28.82
2017-08-01T21:49:41.561Z,28.79
2017-08-01T21:50:50.475Z,28.81
2017-08-01T21:51:59.377Z,28.86
2017-08-01T21:53:08.292Z,28.82
2017-08-01T21:54:17.191Z,28.73
2017-08-01T21:55:26.431Z,28.79
2017-08-01T21:56:35.337Z,28.88
2017-08-01T21:57:44.576Z,28.79
2017-08-01T21:58:53.471Z,28.76
2017-08-01T22:00:02.374Z,28.79
2017-08-01T22:01:11.606Z,28.74
2017-08-01T22:02:20.546Z,28.74
2017-08-01T22:03:29.465Z,28.77
2017-08-01T22:04:38.721Z,28.81
2017-08-01T22:05:47.644Z,28.74
2017-08-01T22:06:56.568Z,28.7
2017-08-01T22:08:05.528Z,28.68
2017-08-01T22:09:14.462Z,28.83
2017-08-01T22:10:23.377Z,28.81
2017-08-01T22:11:32.297Z,28.76
2017-08-01T22:12:41.223Z,28.79
2017-08-01T22:13:50.140Z,28.73
2017-08-01T22:14:59.065Z,28.71
2017-08-01T22:16:07.988Z,28.81
2017-08-01T22:17:16.918Z,28.7
2017-08-01T22:18:25.843Z,28.76
2017-08-01T22:19:34.774Z,28.77
2017-08-01T22:20:43.715Z,28.79
2017-08-01T22:21:52.640Z,28.74
2017-08-01T22:23:01.569Z,28.82
2017-08-01T22:24:10.491Z,28.73
2017-08-01T22:25:19.420Z,28.68
2017-08-01T22:26:28.341Z,28.77
2017-08-01T22:27:37.257Z,28.67
2017-08-01T22:28:46.179Z,28.73
2017-08-01T22:29:55.102Z,28.82
2017-08-01T22:31:04.023Z,28.81
2017-08-01T22:32:12.950Z,28.7
2017-08-01T22:33:21.872Z,28.73
2017-08-01T22:34:30.792Z,28.71
2017-08-01T22:35:39.717Z,28.74
2017-08-01T22:36:48.657Z,28.82
2017-08-01T22:37:57.577Z,28.82
2017-08-01T22:39:06.496Z,28.76
2017-08-01T22:40:15.415Z,28.81
2017-08-01T22:41:24.352Z,28.7
2017-08-01T22:42:33.276Z,28.73
2017-08-01T22:43:42.195Z,28.67
2017-08-01T22:44:51.113Z,28.83
2017-08-01T22:46:00.034Z,28.7
2017-08-01T22:47:08.958Z,28.74
2017-08-01T22:48:18.204Z,28.74
2017-08-01T22:49:27.446Z,28.7
2017-08-01T22:50:36.367Z,28.67
2017-08-01T22:51:45.300Z,28.7
2017-08-01T22:52:54.217Z,28.74
2017-08-01T22:54:03.153Z,28.7
2017-08-01T22:55:12.078Z,28.7
2017-08-01T22:56:21.006Z,28.7
2017-08-01T22:57:29.931Z,28.68
2017-08-01T22:58:38.847Z,28.7
2017-08-01T22:59:47.763Z,28.74
2017-08-01T23:00:56.686Z,28.68
2017-08-01T23:02:05.613Z,28.71
2017-08-01T23:03:14.542Z,28.71
2017-08-01T23:04:23.467Z,28.68
2017-08-01T23:05:32.381Z,28.68
2017-08-01T23:06:41.309Z,28.71
2017-08-01T23:07:50.561Z,28.7
2017-08-01T23:08:59.478Z,28.7
2017-08-01T23:10:08.405Z,28.63
2017-08-01T23:11:17.326Z,28.7
2017-08-01T23:12:26.249Z,28.64
2017-08-01T23:13:35.172Z,28.71
2017-08-01T23:14:44.096Z,28.66
2017-08-01T23:15:53.023Z,28.66
2017-08-01T23:17:01.967Z,28.67
2017-08-01T23:18:10.882Z,28.71
2017-08-01T23:19:19.804Z,28.76
2017-08-01T23:20:28.724Z,28.64
2017-08-01T23:21:37.973Z,28.67
2017-08-01T23:22:46.901Z,28.58
2017-08-01T23:23:55.817Z,28.7
2017-08-01T23:25:04.741Z,28.64
2017-08-01T23:26:13.666Z,28.66
2017-08-01T23:27:22.590Z,28.66
2017-08-01T23:28:31.514Z,28.67
2017-08-01T23:29:40.761Z,28.64
2017-08-01T23:30:50.651Z,28.66
2017-08-01T23:31:59.571Z,28.67
2017-08-01T23:33:08.820Z,28.71
2017-08-01T23:34:18.071Z,28.61
2017-08-01T23:35:26.991Z,28.6
2017-08-01T23:36:35.919Z,28.63
2017-08-01T23:37:44.840Z,28.63
2017-08-01T23:38:53.760Z,28.7
2017-08-01T23:40:02.681Z,28.64
2017-08-01T23:41:11.604Z,28.68
2017-08-01T23:42:20.531Z,28.58
2017-08-01T23:43:29.787Z,28.66
2017-08-01T23:44:38.702Z,28.56
2017-08-01T23:45:47.622Z,28.63
2017-08-01T23:46:56.550Z,28.63
2017-08-01T23:48:05.480Z,28.56
2017-08-01T23:49:14.419Z,28.6
2017-08-01T23:50:23.359Z,28.48
2017-08-01T23:51:32.277Z,28.55
2017-08-01T23:52:41.200Z,28.56
2017-08-01T23:53:50.121Z,28.58
2017-08-01T23:54:59.055Z,28.6
2017-08-01T23:56:07.980Z,28.64
2017-08-01T23:57:16.898Z,28.56
2017-08-01T23:58:25.817Z,28.6
2017-08-01T23:59:34.737Z,28.64
